createdAt,value
2023-01-10T00:02:18.307Z,60.33
2023-01-10T00:05:06.689Z,58.53
2023-01-10T00:07:53.769Z,47.90
2023-01-10T00:10:42.351Z,50.40
2023-01-10T00:13:28.995Z,46.70
2023-01-10T00:16:15.942Z,47.55
2023-01-10T00:19:03.345Z,46.03
2023-01-10T00:21:50.807Z,43.55
2023-01-10T00:24:39.023Z,44.80
2023-01-10T00:27:27.496Z,50.13
2023-01-10T00:30:15.084Z,53.05
2023-01-10T00:33:04.485Z,47.83
2023-01-10T00:35:52.246Z,47.53
2023-01-10T00:38:39.693Z,50.55
2023-01-10T00:41:44.981Z,47.22
2023-01-10T00:44:33.567Z,45.50
2023-01-10T00:47:20.874Z,44.35
2023-01-10T00:50:09.601Z,50.63
2023-01-10T00:52:56.673Z,49.70
2023-01-10T00:55:43.966Z,48.47
2023-01-10T00:58:31.175Z,52.45
2023-01-10T01:01:19.868Z,44.50
2023-01-10T01:04:07.125Z,39.33
2023-01-10T01:06:54.383Z,41.55
2023-01-10T01:10:06.452Z,45.65
2023-01-10T01:12:54.099Z,43.55
2023-01-10T01:15:42.028Z,50.22
2023-01-10T01:18:30.931Z,49.20
2023-01-10T01:21:17.922Z,42.08
2023-01-10T01:24:05.429Z,42.95
2023-01-10T01:26:52.710Z,40.88
2023-01-10T01:29:43.317Z,49.67
2023-01-10T01:32:31.004Z,42.30
2023-01-10T01:35:19.632Z,42.22
2023-01-10T01:38:07.127Z,45.63
2023-01-10T01:40:54.353Z,39.45
2023-01-10T01:44:00.734Z,40.83
2023-01-10T01:46:51.591Z,34.70
2023-01-10T01:49:42.199Z,45.95
2023-01-10T01:52:37.249Z,43.97
2023-01-10T01:55:27.771Z,42.75
2023-01-10T01:58:19.507Z,41.63
2023-01-10T02:01:07.488Z,43.88
2023-01-10T02:04:02.054Z,40.10
2023-01-10T02:06:53.620Z,43.28
2023-01-10T02:09:47.170Z,41.92
2023-01-10T02:12:34.764Z,42.45
2023-01-10T02:15:22.803Z,40.05
2023-01-10T02:18:10.381Z,44.47
2023-01-10T02:21:20.926Z,42.63
2023-01-10T02:24:45.011Z,43.58
2023-01-10T02:27:42.251Z,45.90
2023-01-10T02:30:47.995Z,46.65
2023-01-10T02:33:40.614Z,37.90
2023-01-10T02:36:39.519Z,41.42
2023-01-10T02:39:34.669Z,44.45
2023-01-10T02:42:30.205Z,39.80
2023-01-10T02:45:22.393Z,40.22
2023-01-10T02:48:09.647Z,42.20
2023-01-10T02:51:05.162Z,41.80
2023-01-10T02:53:58.548Z,40.28
2023-01-10T02:57:19.643Z,41.45
2023-01-10T03:00:32.432Z,39.67
2023-01-10T03:03:33.241Z,35.95
2023-01-10T03:06:31.222Z,35.72
2023-01-10T03:09:28.294Z,39.58
2023-01-10T03:12:22.038Z,37.45
2023-01-10T03:15:11.056Z,33.92
2023-01-10T03:18:02.362Z,34.05
2023-01-10T03:20:52.691Z,36.53
2023-01-10T03:23:43.013Z,33.40
2023-01-10T03:26:38.532Z,35.97
2023-01-10T03:29:32.779Z,33.83
2023-01-10T03:32:24.774Z,34.50
2023-01-10T03:35:14.465Z,33.67
2023-01-10T03:38:07.882Z,30.33
2023-01-10T03:41:02.576Z,32.47
2023-01-10T03:44:25.646Z,31.02
2023-01-10T03:47:23.553Z,31.23
2023-01-10T03:50:14.531Z,29.63
2023-01-10T03:53:01.966Z,31.42
2023-01-10T03:55:49.895Z,28.90
2023-01-10T03:58:38.419Z,30.23
2023-01-10T04:01:26.829Z,29.45
2023-01-10T04:04:14.481Z,25.80
2023-01-10T04:07:02.077Z,32.38
2023-01-10T04:09:49.386Z,28.25
2023-01-10T04:12:36.767Z,26.00
2023-01-10T04:15:25.378Z,27.20
2023-01-10T04:18:13.100Z,30.60
2023-01-10T04:21:00.559Z,29.60
2023-01-10T04:23:47.995Z,27.80
2023-01-10T04:26:35.573Z,23.92
2023-01-10T04:29:23.869Z,28.17
2023-01-10T04:32:12.337Z,27.17
2023-01-10T04:34:59.444Z,20.80
2023-01-10T04:37:46.745Z,26.55
2023-01-10T04:40:34.154Z,20.73
2023-01-10T04:43:21.638Z,23.33
2023-01-10T04:46:09.321Z,23.55
2023-01-10T04:48:58.698Z,21.92
2023-01-10T04:51:45.643Z,19.63
2023-01-10T04:54:32.825Z,19.42
2023-01-10T04:57:20.343Z,19.05
2023-01-10T05:00:08.963Z,19.50
2023-01-10T05:02:57.313Z,19.48
2023-01-10T05:05:46.138Z,18.48
2023-01-10T05:08:33.895Z,16.25
2023-01-10T05:11:21.544Z,15.18
2023-01-10T05:14:08.788Z,16.35
2023-01-10T05:16:56.656Z,13.50
2023-01-10T05:19:44.271Z,16.73
2023-01-10T05:22:32.987Z,14.30
2023-01-10T05:25:20.005Z,18.50
2023-01-10T05:28:07.511Z,10.90
2023-01-10T05:30:55.281Z,15.75
2023-01-10T05:33:46.815Z,14.45
2023-01-10T05:36:34.038Z,17.05
2023-01-10T05:39:22.748Z,11.85
2023-01-10T05:42:10.185Z,13.73
2023-01-10T05:44:57.658Z,11.32
2023-01-10T05:47:45.153Z,12.75
2023-01-10T05:50:32.649Z,11.43
2023-01-10T05:53:22.053Z,16.42
2023-01-10T05:56:11.605Z,14.55
2023-01-10T05:59:07.742Z,12.32
2023-01-10T06:01:56.890Z,11.55
2023-01-10T06:04:44.088Z,10.82
2023-01-10T06:07:32.270Z,11.10
2023-01-10T06:10:19.966Z,9.73
2023-01-10T06:13:09.857Z,12.93
2023-01-10T06:15:57.497Z,8.95
2023-01-10T06:18:44.909Z,9.93
2023-01-10T06:21:31.959Z,9.93
2023-01-10T06:24:19.443Z,12.43
2023-01-10T06:27:06.943Z,9.20
2023-01-10T06:29:55.885Z,10.57
2023-01-10T06:32:43.483Z,9.98
2023-01-10T06:35:31.280Z,10.88
2023-01-10T06:38:18.865Z,9.65
2023-01-10T06:41:13.798Z,8.27
2023-01-10T06:44:01.089Z,11.23
2023-01-10T06:46:49.925Z,7.57
2023-01-10T06:49:37.179Z,10.77
2023-01-10T06:52:24.429Z,7.55
2023-01-10T06:55:11.762Z,9.57
2023-01-10T06:57:59.790Z,7.15
2023-01-10T07:00:47.069Z,7.22
2023-01-10T07:03:35.946Z,9.05
2023-01-10T07:06:23.277Z,6.93
2023-01-10T07:09:10.551Z,7.40
2023-01-10T07:11:57.804Z,7.03
2023-01-10T07:14:44.817Z,8.45
2023-01-10T07:17:32.217Z,9.80
2023-01-10T07:20:21.212Z,9.73
2023-01-10T07:23:08.452Z,13.82
2023-01-10T07:25:55.914Z,9.95
2023-01-10T07:28:43.184Z,9.00
2023-01-10T07:31:30.713Z,11.85
2023-01-10T07:34:19.780Z,10.35
2023-01-10T07:37:08.628Z,13.68
2023-01-10T07:39:56.464Z,10.18
2023-01-10T07:42:44.021Z,11.20
2023-01-10T07:45:32.002Z,9.20
2023-01-10T07:48:19.204Z,11.20
2023-01-10T07:51:07.036Z,12.40
2023-01-10T07:53:55.885Z,15.93
2023-01-10T07:56:43.298Z,10.23
2023-01-10T07:59:30.364Z,10.18
2023-01-10T08:02:17.470Z,10.63
2023-01-10T08:05:05.147Z,12.77
2023-01-10T08:07:52.797Z,12.32
2023-01-10T08:10:41.543Z,11.15
2023-01-10T08:13:29.167Z,9.07
2023-01-10T08:16:16.636Z,10.40
2023-01-10T08:19:03.814Z,12.70
2023-01-10T08:21:51.121Z,11.13
2023-01-10T08:24:38.449Z,12.88
2023-01-10T08:27:27.067Z,10.68
2023-01-10T08:30:15.315Z,13.10
2023-01-10T08:33:03.613Z,9.90
2023-01-10T08:35:51.154Z,8.63
2023-01-10T08:38:38.611Z,10.68
2023-01-10T08:41:26.038Z,10.13
2023-01-10T08:44:15.702Z,9.32
2023-01-10T08:47:03.074Z,9.65
2023-01-10T08:49:50.736Z,12.82
2023-01-10T08:52:37.837Z,9.05
2023-01-10T08:55:24.909Z,13.70
2023-01-10T08:58:12.181Z,11.38
2023-01-10T09:01:00.934Z,11.43
2023-01-10T09:03:48.316Z,10.10
2023-01-10T09:06:35.627Z,9.98
2023-01-10T09:09:23.165Z,12.15
2023-01-10T09:12:24.604Z,10.98
2023-01-10T09:15:12.371Z,9.65
2023-01-10T09:18:04.737Z,9.75
2023-01-10T09:20:53.376Z,8.75
2023-01-10T09:23:40.609Z,10.52
2023-01-10T09:26:27.935Z,8.95
2023-01-10T09:29:15.722Z,9.30
2023-01-10T09:32:03.051Z,8.50
2023-01-10T09:34:51.594Z,8.77
2023-01-10T09:37:38.961Z,8.23
2023-01-10T09:40:37.394Z,7.78
2023-01-10T09:43:33.623Z,8.77
2023-01-10T09:46:28.286Z,10.48
2023-01-10T09:49:23.962Z,11.48
2023-01-10T09:52:23.238Z,6.22
2023-01-10T09:55:21.265Z,10.25
2023-01-10T09:58:12.656Z,7.25
2023-01-10T10:01:03.817Z,6.47
2023-01-10T10:03:58.866Z,7.88
2023-01-10T10:06:49.382Z,6.45
2023-01-10T10:09:38.205Z,5.13
2023-01-10T10:12:33.903Z,7.80
2023-01-10T10:15:32.063Z,7.85
2023-01-10T10:18:29.117Z,9.88
2023-01-10T10:21:24.615Z,8.88
2023-01-10T10:24:27.602Z,7.32
2023-01-10T10:27:22.883Z,12.55
2023-01-10T10:30:36.144Z,8.38
2023-01-10T10:33:47.357Z,10.65
2023-01-10T10:36:41.957Z,11.27
2023-01-10T10:39:37.379Z,7.78
2023-01-10T10:42:31.452Z,9.25
2023-01-10T10:45:25.437Z,8.85
2023-01-10T10:48:17.127Z,11.98
2023-01-10T10:51:08.540Z,10.30
2023-01-10T10:53:57.734Z,10.25
2023-01-10T10:56:45.952Z,7.93
2023-01-10T10:59:34.790Z,7.80
2023-01-10T11:02:25.943Z,8.90
2023-01-10T11:05:18.878Z,7.82
2023-01-10T11:08:11.132Z,10.02
2023-01-10T11:11:01.121Z,10.57
2023-01-10T11:13:53.250Z,11.27
2023-01-10T11:16:44.821Z,11.43
2023-01-10T11:19:32.901Z,9.57
2023-01-10T11:22:20.491Z,9.25
2023-01-10T11:25:16.501Z,11.00
2023-01-10T11:28:06.272Z,11.43
2023-01-10T11:30:53.432Z,11.80
2023-01-10T11:33:43.425Z,9.25
2023-01-10T11:36:52.832Z,10.43
2023-01-10T11:39:40.204Z,9.85
2023-01-10T11:42:30.706Z,10.77
2023-01-10T11:45:27.405Z,11.48
2023-01-10T11:51:20.062Z,11.35
2023-01-10T11:54:12.605Z,12.32
2023-01-10T11:57:02.838Z,8.70
2023-01-10T11:59:55.275Z,9.48
2023-01-10T12:02:45.076Z,11.55
2023-01-10T12:05:32.744Z,9.60
2023-01-10T12:08:27.763Z,12.45
2023-01-10T12:11:29.969Z,12.50
2023-01-10T12:14:21.565Z,7.60
2023-01-10T12:17:17.841Z,11.90
2023-01-10T12:20:13.909Z,9.25
2023-01-10T12:23:06.340Z,11.87
2023-01-10T12:26:10.808Z,11.38
2023-01-10T12:29:02.647Z,13.98
2023-01-10T12:31:52.337Z,9.35
2023-01-10T12:34:45.463Z,12.98
2023-01-10T12:37:41.912Z,8.48
2023-01-10T12:40:37.971Z,9.07
2023-01-10T12:43:52.372Z,10.15
2023-01-10T12:47:05.766Z,10.82
2023-01-10T12:49:57.208Z,8.60
2023-01-10T12:52:49.406Z,8.80
2023-01-10T12:55:40.785Z,12.55
2023-01-10T12:58:37.040Z,8.40
2023-01-10T13:01:30.668Z,10.43
2023-01-10T13:04:22.763Z,11.52
2023-01-10T13:07:14.203Z,12.35
2023-01-10T13:10:04.805Z,9.85
2023-01-10T13:12:58.403Z,12.23
2023-01-10T13:15:52.118Z,11.45
2023-01-10T13:18:39.391Z,8.70
2023-01-10T13:21:26.851Z,13.35
2023-01-10T13:24:22.316Z,11.85
2023-01-10T13:27:20.790Z,11.63
2023-01-10T13:30:30.487Z,12.27
2023-01-10T13:33:23.231Z,10.88
2023-01-10T13:36:20.576Z,10.40
2023-01-10T13:39:20.987Z,12.50
2023-01-10T13:42:47.570Z,10.60
2023-01-10T13:45:38.482Z,7.63
2023-01-10T13:48:29.341Z,14.32
2023-01-10T13:51:18.903Z,11.48
2023-01-10T13:54:25.492Z,13.57
2023-01-10T13:57:46.425Z,11.93
2023-01-10T14:01:11.672Z,11.25
2023-01-10T14:04:00.671Z,14.95
2023-01-10T14:06:55.105Z,13.40
2023-01-10T14:09:45.674Z,11.80
2023-01-10T14:12:36.704Z,20.10
2023-01-10T14:15:27.186Z,19.85
2023-01-10T14:18:22.370Z,12.60
2023-01-10T14:21:20.265Z,15.43
2023-01-10T14:24:17.685Z,15.52
2023-01-10T14:27:05.513Z,14.23
2023-01-10T14:29:57.357Z,14.65
2023-01-10T14:32:45.105Z,12.85
2023-01-10T14:35:37.836Z,14.20
2023-01-10T14:38:29.335Z,13.80
2023-01-10T14:41:23.023Z,18.63
2023-01-10T14:44:17.093Z,13.07
2023-01-10T14:47:04.719Z,16.08
2023-01-10T14:49:52.474Z,20.00
2023-01-10T14:52:43.719Z,20.65
2023-01-10T14:55:32.644Z,14.82
2023-01-10T14:58:19.846Z,21.58
2023-01-10T15:01:07.129Z,19.25
2023-01-10T15:03:57.006Z,19.98
2023-01-10T15:06:56.096Z,18.27
2023-01-10T15:09:49.550Z,15.55
2023-01-10T15:12:39.546Z,17.95
2023-01-10T15:15:33.522Z,15.57
2023-01-10T15:18:33.358Z,14.25
2023-01-10T15:21:22.250Z,13.55
2023-01-10T15:24:25.844Z,15.13
2023-01-10T15:27:16.372Z,12.75
2023-01-10T15:30:10.155Z,16.50
2023-01-10T15:33:03.400Z,16.17
2023-01-10T15:35:50.977Z,17.17
2023-01-10T15:38:43.362Z,16.48
2023-01-10T15:41:35.636Z,16.05
2023-01-10T15:44:25.804Z,17.80
2023-01-10T15:47:37.076Z,17.67
2023-01-10T15:50:28.395Z,15.80
2023-01-10T15:53:15.559Z,15.18
2023-01-10T15:56:12.713Z,15.77
2023-01-10T15:59:01.442Z,17.20
2023-01-10T16:01:55.370Z,21.73
2023-01-10T16:04:46.148Z,16.33
2023-01-10T16:07:36.385Z,14.18
2023-01-10T16:10:26.492Z,15.73
2023-01-10T16:13:28.835Z,12.82
2023-01-10T16:16:19.866Z,13.57
2023-01-10T16:19:07.428Z,14.23
2023-01-10T16:22:01.181Z,14.80
2023-01-10T16:24:50.396Z,15.52
2023-01-10T16:27:37.699Z,15.95
2023-01-10T16:30:26.637Z,23.90
2023-01-10T16:33:16.405Z,20.92
2023-01-10T16:36:05.510Z,21.30
2023-01-10T16:38:54.261Z,18.85
2023-01-10T16:42:00.090Z,17.58
2023-01-10T16:44:47.606Z,15.40
2023-01-10T16:47:34.904Z,21.02
2023-01-10T16:50:22.132Z,17.33
2023-01-10T16:53:12.239Z,20.27
2023-01-10T16:56:01.369Z,17.52
2023-01-10T16:58:48.982Z,15.85
2023-01-10T17:01:40.254Z,15.23
2023-01-10T17:04:30.622Z,16.30
2023-01-10T17:07:17.801Z,13.07
2023-01-10T17:10:05.368Z,14.90
2023-01-10T17:12:54.875Z,17.00
2023-01-10T17:15:41.858Z,16.08
2023-01-10T17:18:29.467Z,13.82
2023-01-10T17:21:18.601Z,12.60
2023-01-10T17:24:08.352Z,11.65
2023-01-10T17:26:56.794Z,21.85
2023-01-10T17:29:45.477Z,18.85
2023-01-10T17:32:32.921Z,23.08
2023-01-10T17:35:22.322Z,20.05
2023-01-10T17:38:12.334Z,19.67
2023-01-10T17:41:02.299Z,19.58
2023-01-10T17:43:49.382Z,19.10
2023-01-10T17:46:37.825Z,34.70
2023-01-10T17:49:25.951Z,26.90
2023-01-10T17:52:13.118Z,26.73
2023-01-10T17:55:00.240Z,34.15
2023-01-10T17:57:47.707Z,28.08
2023-01-10T18:00:34.757Z,30.75
2023-01-10T18:03:23.822Z,29.73
2023-01-10T18:06:22.827Z,35.60
2023-01-10T18:09:11.051Z,34.20
2023-01-10T18:11:58.033Z,29.20
2023-01-10T18:14:46.941Z,34.38
2023-01-10T18:17:34.100Z,36.10
2023-01-10T18:20:23.463Z,31.48
2023-01-10T18:23:22.155Z,32.88
2023-01-10T18:26:11.442Z,33.63
2023-01-10T18:29:00.305Z,30.33
2023-01-10T18:31:48.380Z,27.38
2023-01-10T18:34:35.447Z,27.67
2023-01-10T18:37:24.165Z,26.35
2023-01-10T18:40:12.575Z,23.95
2023-01-10T18:42:59.778Z,23.00
2023-01-10T18:45:48.434Z,25.27
2023-01-10T18:48:35.836Z,20.38
2023-01-10T18:51:24.817Z,20.83
2023-01-10T18:54:13.295Z,18.08
2023-01-10T18:57:00.424Z,16.48
2023-01-10T18:59:47.642Z,16.83
2023-01-10T19:02:35.227Z,17.73
2023-01-10T19:05:22.527Z,23.83
2023-01-10T19:08:09.874Z,23.00
2023-01-10T19:11:15.701Z,21.33
2023-01-10T19:14:03.458Z,21.00
2023-01-10T19:16:50.743Z,16.65
2023-01-10T19:19:38.223Z,21.33
2023-01-10T19:22:25.675Z,18.95
2023-01-10T19:25:12.873Z,18.42
2023-01-10T19:28:02.293Z,18.92
2023-01-10T19:31:03.565Z,18.90
2023-01-10T19:33:52.716Z,18.63
2023-01-10T19:36:41.591Z,16.27
2023-01-10T19:39:28.970Z,13.93
2023-01-10T19:42:16.459Z,14.77
2023-01-10T19:45:05.890Z,17.15
2023-01-10T19:47:53.254Z,20.25
2023-01-10T19:50:40.447Z,9.70
2023-01-10T19:53:27.686Z,16.30
2023-01-10T19:56:21.762Z,11.65
2023-01-10T19:59:09.083Z,16.95
2023-01-10T20:01:57.769Z,12.77
2023-01-10T20:04:45.825Z,14.35
2023-01-10T20:07:33.129Z,16.02
2023-01-10T20:10:20.674Z,12.77
2023-01-10T20:13:10.251Z,17.42
2023-01-10T20:15:57.805Z,13.93
2023-01-10T20:18:46.978Z,15.40
2023-01-10T20:21:34.234Z,20.45
2023-01-10T20:24:22.137Z,14.85
2023-01-10T20:27:09.510Z,15.73
2023-01-10T20:29:56.887Z,17.85
2023-01-10T20:32:44.309Z,13.38
2023-01-10T20:35:33.231Z,15.57
2023-01-10T20:38:20.493Z,16.60
2023-01-10T20:41:11.396Z,13.15
2023-01-10T20:43:59.170Z,19.60
2023-01-10T20:46:46.711Z,20.25
2023-01-10T20:49:34.171Z,16.60
2023-01-10T20:52:23.163Z,14.77
2023-01-10T20:55:10.647Z,17.35
2023-01-10T20:57:58.039Z,16.48
2023-01-10T21:00:45.667Z,16.58
2023-01-10T21:03:33.246Z,15.57
2023-01-10T21:06:22.562Z,17.67
2023-01-10T21:09:11.470Z,15.00
2023-01-10T21:12:10.700Z,19.50
2023-01-10T21:17:53.240Z,13.65
2023-01-10T21:20:42.407Z,16.13
2023-01-10T21:23:30.224Z,12.43
2023-01-10T21:26:19.043Z,15.90
2023-01-10T21:29:05.927Z,14.20
2023-01-10T21:31:53.861Z,13.00
2023-01-10T21:34:41.357Z,12.32
2023-01-10T21:37:28.615Z,12.50
2023-01-10T21:40:16.127Z,18.80
2023-01-10T21:43:05.220Z,14.65
2023-01-10T21:45:59.707Z,17.60
2023-01-10T21:48:47.030Z,14.38
2023-01-10T21:51:34.851Z,16.70
2023-01-10T21:54:22.433Z,15.65
2023-01-10T21:57:09.617Z,17.50
2023-01-10T21:59:58.205Z,13.73
2023-01-10T22:02:45.702Z,16.05
2023-01-10T22:05:33.527Z,15.43
2023-01-10T22:08:20.632Z,17.38
2023-01-10T22:11:10.542Z,23.15
2023-01-10T22:13:58.141Z,19.50
2023-01-10T22:16:46.869Z,18.65
2023-01-10T22:19:34.217Z,17.63
2023-01-10T22:22:21.427Z,21.17
2023-01-10T22:25:09.611Z,22.40
2023-01-10T22:27:56.584Z,29.35
2023-01-10T22:30:43.760Z,30.83
2023-01-10T22:33:34.784Z,31.60
2023-01-10T22:36:22.728Z,30.38
2023-01-10T22:39:10.548Z,32.85
2023-01-10T22:41:57.790Z,27.40
2023-01-10T22:44:44.982Z,24.65
2023-01-10T22:47:32.221Z,30.33
2023-01-10T22:50:20.623Z,26.27
2023-01-10T22:53:08.557Z,26.15
2023-01-10T22:55:56.512Z,23.52
2023-01-10T22:58:47.960Z,23.13
2023-01-10T23:01:35.276Z,25.60
2023-01-10T23:04:22.665Z,23.83
2023-01-10T23:07:12.965Z,24.92
2023-01-10T23:10:00.074Z,24.05
2023-01-10T23:12:47.398Z,25.02
2023-01-10T23:15:34.910Z,31.98
2023-01-10T23:18:22.361Z,28.23
2023-01-10T23:21:10.043Z,24.77
2023-01-10T23:23:59.767Z,36.08
2023-01-10T23:26:46.809Z,38.35
2023-01-10T23:29:34.024Z,34.95
2023-01-10T23:32:21.164Z,33.78
2023-01-10T23:35:08.867Z,27.80
2023-01-10T23:37:56.012Z,28.27
2023-01-10T23:40:44.926Z,32.00
2023-01-10T23:43:32.217Z,33.90
2023-01-10T23:46:20.117Z,33.97
2023-01-10T23:49:07.260Z,31.40
2023-01-10T23:51:54.428Z,36.10
2023-01-10T23:54:41.776Z,29.15
2023-01-10T23:57:30.342Z,36.42
